sensor_id;sensor_type;location;lat;lon;timestamp;P1;durP1;ratioP1;P2;durP2;ratioP2
27293;SDS011;14785;52.556;13.430;2023-07-20T00:00:12;44.67;;;41.97;;
27293;SDS011;14785;52.556;13.430;2023-07-20T00:02:38;22.92;;;21.08;;
27293;SDS011;14785;52.556;13.430;2023-07-20T00:05:04;19.48;;;18.08;;
27293;SDS011;14785;52.556;13.430;2023-07-20T00:07:31;17.48;;;15.82;;
27293;SDS011;14785;52.556;13.430;2023-07-20T00:09:56;14.13;;;13.03;;
27293;SDS011;14785;52.556;13.430;2023-07-20T00:12:22;16.07;;;14.27;;
27293;SDS011;14785;52.556;13.430;2023-07-20T00:14:47;25.98;;;24.35;;
27293;SDS011;14785;52.556;13.430;2023-07-20T00:17:13;39.33;;;36.90;;
27293;SDS011;14785;52.556;13.430;2023-07-20T00:19:38;56.43;;;53.20;;
27293;SDS011;14785;52.556;13.430;2023-07-20T00:22:04;25.87;;;23.80;;
27293;SDS011;14785;52.556;13.430;2023-07-20T00:24:30;13.02;;;11.93;;
27293;SDS011;14785;52.556;13.430;2023-07-20T00:26:55;14.50;;;13.40;;
27293;SDS011;14785;52.556;13.430;2023-07-20T00:29:21;16.00;;;14.90;;
27293;SDS011;14785;52.556;13.430;2023-07-20T00:31:49;20.25;;;18.90;;
27293;SDS011;14785;52.556;13.430;2023-07-20T00:34:14;24.87;;;23.33;;
27293;SDS011;14785;52.556;13.430;2023-07-20T00:36:40;23.80;;;22.27;;
27293;SDS011;14785;52.556;13.430;2023-07-20T00:39:06;11.15;;;10.18;;
27293;SDS011;14785;52.556;13.430;2023-07-20T00:41:31;13.30;;;12.40;;
27293;SDS011;14785;52.556;13.430;2023-07-20T00:43:58;17.77;;;16.33;;
27293;SDS011;14785;52.556;13.430;2023-07-20T00:46:23;21.57;;;20.07;;
27293;SDS011;14785;52.556;13.430;2023-07-20T00:48:50;25.52;;;23.70;;
27293;SDS011;14785;52.556;13.430;2023-07-20T00:51:16;17.42;;;15.90;;
27293;SDS011;14785;52.556;13.430;2023-07-20T00:53:42;16.50;;;15.03;;
27293;SDS011;14785;52.556;13.430;2023-07-20T00:56:07;16.17;;;15.03;;
27293;SDS011;14785;52.556;13.430;2023-07-20T00:58:34;17.10;;;15.70;;
27293;SDS011;14785;52.556;13.430;2023-07-20T01:00:59;19.70;;;18.10;;
27293;SDS011;14785;52.556;13.430;2023-07-20T01:03:25;17.73;;;16.43;;
27293;SDS011;14785;52.556;13.430;2023-07-20T01:08:40;16.38;;;14.93;;
27293;SDS011;14785;52.556;13.430;2023-07-20T01:11:16;51.97;;;48.92;;
27293;SDS011;14785;52.556;13.430;2023-07-20T01:13:47;23.80;;;22.10;;
27293;SDS011;14785;52.556;13.430;2023-07-20T01:16:12;14.13;;;12.93;;
27293;SDS011;14785;52.556;13.430;2023-07-20T01:18:38;21.10;;;19.30;;
27293;SDS011;14785;52.556;13.430;2023-07-20T01:21:04;17.47;;;16.07;;
27293;SDS011;14785;52.556;13.430;2023-07-20T01:23:39;15.77;;;14.38;;
27293;SDS011;14785;52.556;13.430;2023-07-20T01:32:01;14.98;;;13.68;;
27293;SDS011;14785;52.556;13.430;2023-07-20T01:34:29;15.57;;;14.27;;
27293;SDS011;14785;52.556;13.430;2023-07-20T01:36:55;13.50;;;12.32;;
27293;SDS011;14785;52.556;13.430;2023-07-20T01:39:21;13.68;;;12.57;;
27293;SDS011;14785;52.556;13.430;2023-07-20T01:41:47;17.67;;;16.17;;
27293;SDS011;14785;52.556;13.430;2023-07-20T01:44:13;26.83;;;24.63;;
27293;SDS011;14785;52.556;13.430;2023-07-20T01:46:38;19.37;;;17.67;;
27293;SDS011;14785;52.556;13.430;2023-07-20T01:49:04;19.63;;;17.83;;
27293;SDS011;14785;52.556;13.430;2023-07-20T01:51:29;16.03;;;14.70;;
27293;SDS011;14785;52.556;13.430;2023-07-20T01:53:54;18.40;;;16.90;;
27293;SDS011;14785;52.556;13.430;2023-07-20T01:56:20;23.00;;;21.30;;
27293;SDS011;14785;52.556;13.430;2023-07-20T01:58:45;15.37;;;14.07;;
27293;SDS011;14785;52.556;13.430;2023-07-20T02:01:11;15.60;;;14.07;;
27293;SDS011;14785;52.556;13.430;2023-07-20T02:03:36;20.33;;;18.37;;
27293;SDS011;14785;52.556;13.430;2023-07-20T02:06:02;16.10;;;14.53;;
27293;SDS011;14785;52.556;13.430;2023-07-20T02:08:27;14.40;;;13.03;;
27293;SDS011;14785;52.556;13.430;2023-07-20T02:10:52;14.87;;;13.53;;
27293;SDS011;14785;52.556;13.430;2023-07-20T02:13:18;17.57;;;16.07;;
27293;SDS011;14785;52.556;13.430;2023-07-20T02:15:43;17.90;;;16.47;;
27293;SDS011;14785;52.556;13.430;2023-07-20T02:18:08;14.93;;;13.67;;
27293;SDS011;14785;52.556;13.430;2023-07-20T02:20:34;13.67;;;12.43;;
27293;SDS011;14785;52.556;13.430;2023-07-20T02:23:00;25.35;;;23.17;;
27293;SDS011;14785;52.556;13.430;2023-07-20T02:25:25;16.87;;;15.47;;
27293;SDS011;14785;52.556;13.430;2023-07-20T02:27:52;13.83;;;12.53;;
27293;SDS011;14785;52.556;13.430;2023-07-20T02:30:17;18.45;;;16.83;;
27293;SDS011;14785;52.556;13.430;2023-07-20T02:32:43;20.90;;;19.10;;
27293;SDS011;14785;52.556;13.430;2023-07-20T02:35:13;20.05;;;18.13;;
27293;SDS011;14785;52.556;13.430;2023-07-20T02:37:39;20.70;;;19.05;;
27293;SDS011;14785;52.556;13.430;2023-07-20T02:40:05;18.73;;;16.83;;
27293;SDS011;14785;52.556;13.430;2023-07-20T02:42:32;18.95;;;17.38;;
27293;SDS011;14785;52.556;13.430;2023-07-20T02:44:57;26.17;;;24.03;;
27293;SDS011;14785;52.556;13.430;2023-07-20T02:47:23;21.87;;;19.77;;
27293;SDS011;14785;52.556;13.430;2023-07-20T02:49:48;26.33;;;24.20;;
27293;SDS011;14785;52.556;13.430;2023-07-20T02:52:14;22.43;;;19.83;;
27293;SDS011;14785;52.556;13.430;2023-07-20T02:54:39;28.23;;;25.63;;
27293;SDS011;14785;52.556;13.430;2023-07-20T02:57:05;25.67;;;23.13;;
27293;SDS011;14785;52.556;13.430;2023-07-20T02:59:30;28.30;;;25.00;;
27293;SDS011;14785;52.556;13.430;2023-07-20T03:01:56;23.80;;;21.37;;
27293;SDS011;14785;52.556;13.430;2023-07-20T03:06:49;28.58;;;25.77;;
27293;SDS011;14785;52.556;13.430;2023-07-20T03:09:14;30.43;;;27.33;;
27293;SDS011;14785;52.556;13.430;2023-07-20T03:11:40;32.72;;;29.60;;
27293;SDS011;14785;52.556;13.430;2023-07-20T03:14:06;36.20;;;32.87;;
27293;SDS011;14785;52.556;13.430;2023-07-20T03:16:31;32.83;;;26.87;;
27293;SDS011;14785;52.556;13.430;2023-07-20T03:18:59;33.63;;;30.27;;
27293;SDS011;14785;52.556;13.430;2023-07-20T03:21:28;27.52;;;24.55;;
27293;SDS011;14785;52.556;13.430;2023-07-20T03:23:54;27.03;;;23.97;;
27293;SDS011;14785;52.556;13.430;2023-07-20T03:26:20;35.05;;;31.77;;
27293;SDS011;14785;52.556;13.430;2023-07-20T03:28:45;37.40;;;33.40;;
27293;SDS011;14785;52.556;13.430;2023-07-20T03:31:11;32.67;;;29.33;;
27293;SDS011;14785;52.556;13.430;2023-07-20T03:33:36;30.03;;;26.63;;
27293;SDS011;14785;52.556;13.430;2023-07-20T03:36:01;36.07;;;32.70;;
27293;SDS011;14785;52.556;13.430;2023-07-20T03:38:27;28.47;;;25.57;;
27293;SDS011;14785;52.556;13.430;2023-07-20T03:40:56;29.33;;;26.17;;
27293;SDS011;14785;52.556;13.430;2023-07-20T03:43:23;31.75;;;28.15;;
27293;SDS011;14785;52.556;13.430;2023-07-20T03:48:19;29.02;;;25.08;;
27293;SDS011;14785;52.556;13.430;2023-07-20T03:50:45;39.85;;;36.13;;
27293;SDS011;14785;52.556;13.430;2023-07-20T03:53:12;39.85;;;36.13;;
27293;SDS011;14785;52.556;13.430;2023-07-20T03:55:37;32.53;;;29.40;;
27293;SDS011;14785;52.556;13.430;2023-07-20T03:58:05;32.83;;;28.42;;
27293;SDS011;14785;52.556;13.430;2023-07-20T04:00:31;31.92;;;26.58;;
27293;SDS011;14785;52.556;13.430;2023-07-20T04:02:56;31.80;;;28.53;;
27293;SDS011;14785;52.556;13.430;2023-07-20T04:05:22;35.37;;;29.67;;
27293;SDS011;14785;52.556;13.430;2023-07-20T04:07:47;31.03;;;27.90;;
27293;SDS011;14785;52.556;13.430;2023-07-20T04:10:13;37.43;;;34.30;;
27293;SDS011;14785;52.556;13.430;2023-07-20T04:12:38;51.50;;;47.13;;
27293;SDS011;14785;52.556;13.430;2023-07-20T04:15:03;28.90;;;25.80;;
27293;SDS011;14785;52.556;13.430;2023-07-20T04:17:29;28.95;;;26.10;;
27293;SDS011;14785;52.556;13.430;2023-07-20T04:19:55;34.87;;;31.87;;
27293;SDS011;14785;52.556;13.430;2023-07-20T04:22:20;30.57;;;25.07;;
27293;SDS011;14785;52.556;13.430;2023-07-20T04:24:46;30.05;;;27.05;;
27293;SDS011;14785;52.556;13.430;2023-07-20T04:27:12;31.13;;;26.83;;
27293;SDS011;14785;52.556;13.430;2023-07-20T04:29:37;31.93;;;28.67;;
27293;SDS011;14785;52.556;13.430;2023-07-20T04:32:03;30.13;;;24.97;;
27293;SDS011;14785;52.556;13.430;2023-07-20T04:34:28;29.97;;;26.80;;
27293;SDS011;14785;52.556;13.430;2023-07-20T04:36:54;31.03;;;28.17;;
27293;SDS011;14785;52.556;13.430;2023-07-20T04:39:19;29.97;;;26.97;;
27293;SDS011;14785;52.556;13.430;2023-07-20T04:41:44;29.20;;;26.30;;
27293;SDS011;14785;52.556;13.430;2023-07-20T04:44:10;29.57;;;26.93;;
27293;SDS011;14785;52.556;13.430;2023-07-20T04:46:35;28.53;;;26.03;;
27293;SDS011;14785;52.556;13.430;2023-07-20T04:49:01;26.83;;;24.17;;
27293;SDS011;14785;52.556;13.430;2023-07-20T04:51:26;26.07;;;23.60;;
27293;SDS011;14785;52.556;13.430;2023-07-20T04:53:55;34.50;;;31.23;;
27293;SDS011;14785;52.556;13.430;2023-07-20T04:56:21;31.50;;;28.88;;
27293;SDS011;14785;52.556;13.430;2023-07-20T04:58:48;25.27;;;23.10;;
27293;SDS011;14785;52.556;13.430;2023-07-20T05:01:13;29.03;;;26.63;;
27293;SDS011;14785;52.556;13.430;2023-07-20T05:03:39;27.40;;;25.07;;
27293;SDS011;14785;52.556;13.430;2023-07-20T05:06:04;21.03;;;19.00;;
27293;SDS011;14785;52.556;13.430;2023-07-20T05:08:29;24.37;;;22.10;;
27293;SDS011;14785;52.556;13.430;2023-07-20T05:10:55;23.70;;;21.73;;
27293;SDS011;14785;52.556;13.430;2023-07-20T05:13:20;20.40;;;18.80;;
27293;SDS011;14785;52.556;13.430;2023-07-20T05:15:46;23.40;;;21.37;;
27293;SDS011;14785;52.556;13.430;2023-07-20T05:18:11;22.23;;;20.20;;
27293;SDS011;14785;52.556;13.430;2023-07-20T05:20:37;18.73;;;17.10;;
27293;SDS011;14785;52.556;13.430;2023-07-20T05:23:02;20.03;;;18.23;;
27293;SDS011;14785;52.556;13.430;2023-07-20T05:25:28;21.60;;;19.70;;
27293;SDS011;14785;52.556;13.430;2023-07-20T05:27:53;19.00;;;17.47;;
27293;SDS011;14785;52.556;13.430;2023-07-20T05:30:20;21.60;;;19.88;;
27293;SDS011;14785;52.556;13.430;2023-07-20T05:32:46;17.52;;;15.65;;
27293;SDS011;14785;52.556;13.430;2023-07-20T05:35:16;19.55;;;17.85;;
27293;SDS011;14785;52.556;13.430;2023-07-20T05:37:45;17.95;;;16.25;;
27293;SDS011;14785;52.556;13.430;2023-07-20T05:40:10;18.95;;;17.10;;
27293;SDS011;14785;52.556;13.430;2023-07-20T05:45:02;21.05;;;19.00;;
27293;SDS011;14785;52.556;13.430;2023-07-20T05:47:28;17.02;;;15.48;;
27293;SDS011;14785;52.556;13.430;2023-07-20T05:49:54;19.15;;;17.30;;
27293;SDS011;14785;52.556;13.430;2023-07-20T05:52:19;18.57;;;16.80;;
27293;SDS011;14785;52.556;13.430;2023-07-20T05:54:45;19.00;;;17.13;;
27293;SDS011;14785;52.556;13.430;2023-07-20T05:57:10;17.63;;;15.90;;
27293;SDS011;14785;52.556;13.430;2023-07-20T05:59:36;16.30;;;14.80;;
27293;SDS011;14785;52.556;13.430;2023-07-20T06:02:03;19.60;;;18.08;;
27293;SDS011;14785;52.556;13.430;2023-07-20T06:04:29;18.17;;;16.38;;
27293;SDS011;14785;52.556;13.430;2023-07-20T06:06:54;28.30;;;26.07;;
27293;SDS011;14785;52.556;13.430;2023-07-20T06:09:19;22.80;;;21.10;;
27293;SDS011;14785;52.556;13.430;2023-07-20T06:11:45;21.10;;;19.27;;
27293;SDS011;14785;52.556;13.430;2023-07-20T06:14:10;26.13;;;24.00;;
27293;SDS011;14785;52.556;13.430;2023-07-20T06:16:36;13.60;;;12.50;;
27293;SDS011;14785;52.556;13.430;2023-07-20T06:19:01;20.60;;;19.07;;
27293;SDS011;14785;52.556;13.430;2023-07-20T06:21:26;18.80;;;17.37;;
27293;SDS011;14785;52.556;13.430;2023-07-20T06:23:52;14.90;;;13.80;;
27293;SDS011;14785;52.556;13.430;2023-07-20T06:26:17;14.60;;;13.60;;
27293;SDS011;14785;52.556;13.430;2023-07-20T06:28:43;15.47;;;13.93;;
27293;SDS011;14785;52.556;13.430;2023-07-20T06:31:08;12.80;;;11.80;;
27293;SDS011;14785;52.556;13.430;2023-07-20T06:33:33;12.57;;;11.43;;
27293;SDS011;14785;52.556;13.430;2023-07-20T06:36:02;11.27;;;10.25;;
27293;SDS011;14785;52.556;13.430;2023-07-20T06:38:28;11.85;;;10.63;;
27293;SDS011;14785;52.556;13.430;2023-07-20T06:40:54;14.23;;;13.32;;
27293;SDS011;14785;52.556;13.430;2023-07-20T06:43:20;19.53;;;18.17;;
27293;SDS011;14785;52.556;13.430;2023-07-20T06:45:50;13.25;;;12.07;;
27293;SDS011;14785;52.556;13.430;2023-07-20T06:48:16;22.77;;;21.38;;
27293;SDS011;14785;52.556;13.430;2023-07-20T06:50:42;13.30;;;12.43;;
27293;SDS011;14785;52.556;13.430;2023-07-20T06:53:08;12.98;;;12.07;;
27293;SDS011;14785;52.556;13.430;2023-07-20T06:55:33;12.97;;;12.17;;
27293;SDS011;14785;52.556;13.430;2023-07-20T06:57:58;12.77;;;11.87;;
27293;SDS011;14785;52.556;13.430;2023-07-20T07:00:24;9.67;;;8.97;;
27293;SDS011;14785;52.556;13.430;2023-07-20T07:02:49;13.93;;;12.57;;
27293;SDS011;14785;52.556;13.430;2023-07-20T07:05:15;10.33;;;9.50;;
27293;SDS011;14785;52.556;13.430;2023-07-20T07:07:40;9.53;;;7.77;;
27293;SDS011;14785;52.556;13.430;2023-07-20T07:10:06;9.27;;;8.60;;
27293;SDS011;14785;52.556;13.430;2023-07-20T07:12:33;8.52;;;7.93;;
27293;SDS011;14785;52.556;13.430;2023-07-20T07:14:59;10.50;;;7.97;;
27293;SDS011;14785;52.556;13.430;2023-07-20T07:17:25;20.60;;;19.27;;
27293;SDS011;14785;52.556;13.430;2023-07-20T07:19:51;6.90;;;6.40;;
27293;SDS011;14785;52.556;13.430;2023-07-20T07:22:19;6.82;;;6.28;;
27293;SDS011;14785;52.556;13.430;2023-07-20T07:24:46;6.65;;;6.15;;
27293;SDS011;14785;52.556;13.430;2023-07-20T07:27:11;7.60;;;6.97;;
27293;SDS011;14785;52.556;13.430;2023-07-20T07:29:37;7.57;;;7.00;;
27293;SDS011;14785;52.556;13.430;2023-07-20T07:32:02;24.40;;;22.70;;
27293;SDS011;14785;52.556;13.430;2023-07-20T07:34:28;18.15;;;17.02;;
27293;SDS011;14785;52.556;13.430;2023-07-20T07:36:53;8.93;;;8.43;;
27293;SDS011;14785;52.556;13.430;2023-07-20T07:39:19;6.13;;;5.73;;
27293;SDS011;14785;52.556;13.430;2023-07-20T07:41:45;9.13;;;8.37;;
27293;SDS011;14785;52.556;13.430;2023-07-20T07:44:10;12.03;;;11.07;;
27293;SDS011;14785;52.556;13.430;2023-07-20T07:46:36;11.32;;;10.48;;
27293;SDS011;14785;52.556;13.430;2023-07-20T07:49:02;7.63;;;7.22;;
27293;SDS011;14785;52.556;13.430;2023-07-20T07:51:28;8.40;;;7.90;;
27293;SDS011;14785;52.556;13.430;2023-07-20T07:53:53;5.83;;;5.47;;
27293;SDS011;14785;52.556;13.430;2023-07-20T07:56:19;7.10;;;6.70;;
27293;SDS011;14785;52.556;13.430;2023-07-20T07:58:47;6.15;;;5.75;;
27293;SDS011;14785;52.556;13.430;2023-07-20T08:01:13;5.93;;;5.45;;
27293;SDS011;14785;52.556;13.430;2023-07-20T08:03:39;6.97;;;6.45;;
27293;SDS011;14785;52.556;13.430;2023-07-20T08:06:05;6.20;;;5.90;;
27293;SDS011;14785;52.556;13.430;2023-07-20T08:08:31;4.97;;;4.70;;
27293;SDS011;14785;52.556;13.430;2023-07-20T08:10:57;6.03;;;5.72;;
27293;SDS011;14785;52.556;13.430;2023-07-20T08:13:24;8.02;;;7.43;;
27293;SDS011;14785;52.556;13.430;2023-07-20T08:15:50;5.35;;;5.05;;
27293;SDS011;14785;52.556;13.430;2023-07-20T08:18:19;6.63;;;5.05;;
27293;SDS011;14785;52.556;13.430;2023-07-20T08:20:45;5.95;;;5.55;;
27293;SDS011;14785;52.556;13.430;2023-07-20T08:23:10;5.30;;;5.00;;
27293;SDS011;14785;52.556;13.430;2023-07-20T08:25:36;4.90;;;4.60;;
27293;SDS011;14785;52.556;13.430;2023-07-20T08:28:04;6.25;;;5.95;;
27293;SDS011;14785;52.556;13.430;2023-07-20T08:30:39;11.10;;;10.48;;
27293;SDS011;14785;52.556;13.430;2023-07-20T08:33:14;10.60;;;9.93;;
27293;SDS011;14785;52.556;13.430;2023-07-20T08:35:41;7.72;;;7.32;;
27293;SDS011;14785;52.556;13.430;2023-07-20T08:38:07;4.40;;;4.00;;
27293;SDS011;14785;52.556;13.430;2023-07-20T08:40:45;4.45;;;4.15;;
27293;SDS011;14785;52.556;13.430;2023-07-20T08:43:11;5.50;;;5.22;;
27293;SDS011;14785;52.556;13.430;2023-07-20T08:48:04;5.18;;;4.75;;
27293;SDS011;14785;52.556;13.430;2023-07-20T08:50:30;4.65;;;4.40;;
27293;SDS011;14785;52.556;13.430;2023-07-20T08:52:57;5.55;;;5.25;;
27293;SDS011;14785;52.556;13.430;2023-07-20T08:55:23;6.70;;;6.30;;
27293;SDS011;14785;52.556;13.430;2023-07-20T08:57:51;9.23;;;8.52;;
27293;SDS011;14785;52.556;13.430;2023-07-20T09:00:19;7.57;;;5.28;;
27293;SDS011;14785;52.556;13.430;2023-07-20T09:02:46;7.47;;;7.07;;
27293;SDS011;14785;52.556;13.430;2023-07-20T09:05:14;9.30;;;8.77;;
27293;SDS011;14785;52.556;13.430;2023-07-20T09:07:40;8.20;;;7.80;;
27293;SDS011;14785;52.556;13.430;2023-07-20T09:10:06;8.38;;;7.82;;
27293;SDS011;14785;52.556;13.430;2023-07-20T09:15:00;4.13;;;3.92;;
27293;SDS011;14785;52.556;13.430;2023-07-20T09:17:26;5.95;;;5.63;;
27293;SDS011;14785;52.556;13.430;2023-07-20T09:19:52;5.85;;;5.55;;
27293;SDS011;14785;52.556;13.430;2023-07-20T09:22:17;9.17;;;8.53;;
27293;SDS011;14785;52.556;13.430;2023-07-20T09:24:43;4.73;;;4.47;;
27293;SDS011;14785;52.556;13.430;2023-07-20T09:27:09;6.28;;;5.63;;
27293;SDS011;14785;52.556;13.430;2023-07-20T09:29:42;5.93;;;5.53;;
27293;SDS011;14785;52.556;13.430;2023-07-20T09:32:19;5.50;;;5.20;;
27293;SDS011;14785;52.556;13.430;2023-07-20T09:34:46;5.47;;;5.18;;
27293;SDS011;14785;52.556;13.430;2023-07-20T09:37:11;5.10;;;4.75;;
27293;SDS011;14785;52.556;13.430;2023-07-20T09:39:43;4.73;;;4.53;;
27293;SDS011;14785;52.556;13.430;2023-07-20T09:42:11;4.82;;;4.53;;
27293;SDS011;14785;52.556;13.430;2023-07-20T09:44:38;6.80;;;6.47;;
27293;SDS011;14785;52.556;13.430;2023-07-20T09:47:04;16.30;;;15.50;;
27293;SDS011;14785;52.556;13.430;2023-07-20T09:49:30;5.47;;;5.18;;
27293;SDS011;14785;52.556;13.430;2023-07-20T09:51:56;14.77;;;13.90;;
27293;SDS011;14785;52.556;13.430;2023-07-20T09:54:22;5.15;;;4.85;;
27293;SDS011;14785;52.556;13.430;2023-07-20T09:56:50;6.82;;;6.43;;
27293;SDS011;14785;52.556;13.430;2023-07-20T09:59:16;16.27;;;15.38;;
27293;SDS011;14785;52.556;13.430;2023-07-20T10:01:42;8.20;;;7.80;;
27293;SDS011;14785;52.556;13.430;2023-07-20T10:04:10;27.35;;;25.85;;
27293;SDS011;14785;52.556;13.430;2023-07-20T10:06:39;5.28;;;4.93;;
27293;SDS011;14785;52.556;13.430;2023-07-20T10:09:07;4.93;;;4.63;;
27293;SDS011;14785;52.556;13.430;2023-07-20T10:11:36;8.90;;;8.48;;
27293;SDS011;14785;52.556;13.430;2023-07-20T10:14:04;5.20;;;4.88;;
27293;SDS011;14785;52.556;13.430;2023-07-20T10:16:32;42.20;;;39.97;;
27293;SDS011;14785;52.556;13.430;2023-07-20T10:19:03;12.50;;;11.88;;
27293;SDS011;14785;52.556;13.430;2023-07-20T10:21:35;11.05;;;10.45;;
27293;SDS011;14785;52.556;13.430;2023-07-20T10:24:05;7.88;;;7.05;;
27293;SDS011;14785;52.556;13.430;2023-07-20T10:26:32;6.88;;;6.55;;
27293;SDS011;14785;52.556;13.430;2023-07-20T10:28:58;11.00;;;10.32;;
27293;SDS011;14785;52.556;13.430;2023-07-20T10:31:24;5.47;;;4.97;;
27293;SDS011;14785;52.556;13.430;2023-07-20T10:33:54;5.70;;;5.30;;
27293;SDS011;14785;52.556;13.430;2023-07-20T10:36:25;10.82;;;10.32;;
27293;SDS011;14785;52.556;13.430;2023-07-20T10:38:55;14.50;;;13.70;;
27293;SDS011;14785;52.556;13.430;2023-07-20T10:41:34;17.73;;;16.83;;
27293;SDS011;14785;52.556;13.430;2023-07-20T10:44:07;8.63;;;8.15;;
27293;SDS011;14785;52.556;13.430;2023-07-20T10:46:34;19.33;;;17.88;;
27293;SDS011;14785;52.556;13.430;2023-07-20T10:49:05;9.65;;;9.15;;
27293;SDS011;14785;52.556;13.430;2023-07-20T10:56:43;31.08;;;29.40;;
27293;SDS011;14785;52.556;13.430;2023-07-20T10:59:19;13.10;;;12.32;;
27293;SDS011;14785;52.556;13.430;2023-07-20T11:01:46;9.73;;;9.20;;
27293;SDS011;14785;52.556;13.430;2023-07-20T11:04:12;20.98;;;19.92;;
27293;SDS011;14785;52.556;13.430;2023-07-20T11:06:37;14.73;;;13.93;;
27293;SDS011;14785;52.556;13.430;2023-07-20T11:09:11;10.27;;;9.77;;
27293;SDS011;14785;52.556;13.430;2023-07-20T11:11:42;6.95;;;6.55;;
27293;SDS011;14785;52.556;13.430;2023-07-20T11:14:08;9.98;;;9.13;;
27293;SDS011;14785;52.556;13.430;2023-07-20T11:16:50;4.75;;;4.55;;
27293;SDS011;14785;52.556;13.430;2023-07-20T11:19:24;4.32;;;4.03;;
27293;SDS011;14785;52.556;13.430;2023-07-20T11:21:51;4.53;;;4.30;;
27293;SDS011;14785;52.556;13.430;2023-07-20T11:24:18;5.45;;;5.15;;
27293;SDS011;14785;52.556;13.430;2023-07-20T11:29:15;6.05;;;5.75;;
27293;SDS011;14785;52.556;13.430;2023-07-20T11:31:44;6.38;;;5.97;;
27293;SDS011;14785;52.556;13.430;2023-07-20T11:36:38;7.63;;;7.10;;
27293;SDS011;14785;52.556;13.430;2023-07-20T11:39:11;8.68;;;8.07;;
27293;SDS011;14785;52.556;13.430;2023-07-20T11:41:38;7.55;;;5.55;;
27293;SDS011;14785;52.556;13.430;2023-07-20T11:44:05;5.00;;;4.70;;
27293;SDS011;14785;52.556;13.430;2023-07-20T11:46:32;4.95;;;4.72;;
27293;SDS011;14785;52.556;13.430;2023-07-20T11:48:59;4.57;;;4.38;;
27293;SDS011;14785;52.556;13.430;2023-07-20T11:51:25;4.60;;;4.30;;
27293;SDS011;14785;52.556;13.430;2023-07-20T11:53:52;4.75;;;4.45;;
27293;SDS011;14785;52.556;13.430;2023-07-20T11:56:18;8.50;;;8.10;;
27293;SDS011;14785;52.556;13.430;2023-07-20T11:58:44;4.50;;;4.30;;
27293;SDS011;14785;52.556;13.430;2023-07-20T12:01:11;5.65;;;5.35;;
27293;SDS011;14785;52.556;13.430;2023-07-20T12:03:38;4.20;;;4.00;;
27293;SDS011;14785;52.556;13.430;2023-07-20T12:06:10;9.37;;;8.90;;
27293;SDS011;14785;52.556;13.430;2023-07-20T12:08:40;6.70;;;6.40;;
27293;SDS011;14785;52.556;13.430;2023-07-20T12:11:07;5.68;;;5.43;;
27293;SDS011;14785;52.556;13.430;2023-07-20T12:13:42;4.10;;;3.88;;
27293;SDS011;14785;52.556;13.430;2023-07-20T12:16:13;6.33;;;5.73;;
27293;SDS011;14785;52.556;13.430;2023-07-20T12:18:40;5.63;;;5.35;;
27293;SDS011;14785;52.556;13.430;2023-07-20T12:21:09;8.95;;;8.48;;
27293;SDS011;14785;52.556;13.430;2023-07-20T12:23:36;9.93;;;9.38;;
27293;SDS011;14785;52.556;13.430;2023-07-20T12:26:03;9.30;;;8.90;;
27293;SDS011;14785;52.556;13.430;2023-07-20T12:28:31;6.60;;;6.13;;
27293;SDS011;14785;52.556;13.430;2023-07-20T12:30:57;6.00;;;5.50;;
27293;SDS011;14785;52.556;13.430;2023-07-20T12:33:22;5.23;;;4.90;;
27293;SDS011;14785;52.556;13.430;2023-07-20T12:35:48;8.23;;;4.80;;
27293;SDS011;14785;52.556;13.430;2023-07-20T12:38:14;5.80;;;5.40;;
27293;SDS011;14785;52.556;13.430;2023-07-20T12:40:41;5.20;;;5.00;;
27293;SDS011;14785;52.556;13.430;2023-07-20T12:43:06;6.78;;;6.38;;
27293;SDS011;14785;52.556;13.430;2023-07-20T12:45:32;8.77;;;8.35;;
27293;SDS011;14785;52.556;13.430;2023-07-20T12:47:58;4.70;;;4.30;;
27293;SDS011;14785;52.556;13.430;2023-07-20T12:50:24;5.30;;;4.80;;
27293;SDS011;14785;52.556;13.430;2023-07-20T12:52:49;5.53;;;5.20;;
27293;SDS011;14785;52.556;13.430;2023-07-20T12:55:15;6.97;;;6.33;;
27293;SDS011;14785;52.556;13.430;2023-07-20T12:57:40;5.03;;;4.83;;
27293;SDS011;14785;52.556;13.430;2023-07-20T13:00:06;5.53;;;5.23;;
27293;SDS011;14785;52.556;13.430;2023-07-20T13:02:34;5.63;;;5.22;;
27293;SDS011;14785;52.556;13.430;2023-07-20T13:05:01;6.40;;;6.10;;
27293;SDS011;14785;52.556;13.430;2023-07-20T13:07:30;18.20;;;17.05;;
27293;SDS011;14785;52.556;13.430;2023-07-20T13:09:57;5.47;;;5.13;;
27293;SDS011;14785;52.556;13.430;2023-07-20T13:12:29;7.45;;;6.95;;
27293;SDS011;14785;52.556;13.430;2023-07-20T13:14:55;4.65;;;4.45;;
27293;SDS011;14785;52.556;13.430;2023-07-20T13:17:22;5.05;;;4.75;;
27293;SDS011;14785;52.556;13.430;2023-07-20T13:22:13;12.82;;;12.18;;
27293;SDS011;14785;52.556;13.430;2023-07-20T13:27:05;5.07;;;4.80;;
27293;SDS011;14785;52.556;13.430;2023-07-20T13:29:30;8.90;;;8.47;;
27293;SDS011;14785;52.556;13.430;2023-07-20T13:31:57;6.90;;;6.60;;
27293;SDS011;14785;52.556;13.430;2023-07-20T13:34:22;10.23;;;9.73;;
27293;SDS011;14785;52.556;13.430;2023-07-20T13:36:48;4.68;;;4.38;;
27293;SDS011;14785;52.556;13.430;2023-07-20T13:39:13;5.43;;;4.13;;
27293;SDS011;14785;52.556;13.430;2023-07-20T13:41:39;7.07;;;6.57;;
27293;SDS011;14785;52.556;13.430;2023-07-20T13:44:04;4.10;;;3.80;;
27293;SDS011;14785;52.556;13.430;2023-07-20T13:46:30;4.30;;;4.00;;
27293;SDS011;14785;52.556;13.430;2023-07-20T13:48:55;3.70;;;3.47;;
27293;SDS011;14785;52.556;13.430;2023-07-20T13:51:20;4.90;;;4.60;;
27293;SDS011;14785;52.556;13.430;2023-07-20T13:53:47;4.40;;;4.10;;
27293;SDS011;14785;52.556;13.430;2023-07-20T13:56:13;3.95;;;3.65;;
27293;SDS011;14785;52.556;13.430;2023-07-20T13:58:38;3.78;;;3.60;;
27293;SDS011;14785;52.556;13.430;2023-07-20T14:01:04;5.33;;;5.03;;
27293;SDS011;14785;52.556;13.430;2023-07-20T14:03:29;3.80;;;3.57;;
27293;SDS011;14785;52.556;13.430;2023-07-20T14:05:55;4.67;;;4.37;;
27293;SDS011;14785;52.556;13.430;2023-07-20T14:08:21;3.90;;;3.65;;
27293;SDS011;14785;52.556;13.430;2023-07-20T14:10:47;4.55;;;4.35;;
27293;SDS011;14785;52.556;13.430;2023-07-20T14:13:12;5.93;;;5.67;;
27293;SDS011;14785;52.556;13.430;2023-07-20T14:15:38;4.20;;;4.00;;
27293;SDS011;14785;52.556;13.430;2023-07-20T14:20:29;4.03;;;3.83;;
27293;SDS011;14785;52.556;13.430;2023-07-20T14:22:54;4.50;;;4.20;;
27293;SDS011;14785;52.556;13.430;2023-07-20T14:25:20;4.53;;;4.33;;
27293;SDS011;14785;52.556;13.430;2023-07-20T14:27:45;5.17;;;4.87;;
27293;SDS011;14785;52.556;13.430;2023-07-20T14:30:11;4.87;;;4.67;;
27293;SDS011;14785;52.556;13.430;2023-07-20T14:32:37;4.20;;;4.00;;
27293;SDS011;14785;52.556;13.430;2023-07-20T14:35:03;4.60;;;4.40;;
27293;SDS011;14785;52.556;13.430;2023-07-20T14:37:29;6.07;;;5.68;;
27293;SDS011;14785;52.556;13.430;2023-07-20T14:39:54;4.83;;;4.53;;
27293;SDS011;14785;52.556;13.430;2023-07-20T14:42:20;4.50;;;4.20;;
27293;SDS011;14785;52.556;13.430;2023-07-20T14:44:45;5.57;;;5.27;;
27293;SDS011;14785;52.556;13.430;2023-07-20T14:47:11;5.47;;;5.23;;
27293;SDS011;14785;52.556;13.430;2023-07-20T14:49:36;4.60;;;4.30;;
27293;SDS011;14785;52.556;13.430;2023-07-20T14:52:02;4.53;;;4.03;;
27293;SDS011;14785;52.556;13.430;2023-07-20T14:54:28;4.53;;;3.85;;